Time;durP1;ratioP1;P1;durP2;ratioP2;P2;SDS_P1;SDS_P2;PMS_P1;PMS_P2;Temp;Humidity;BMP_temperature;BMP_pressure;BME280_temperature;BME280_humidity;BME280_pressure;Samples;Min_cycle;Max_cycle;Signal;HPM_P1;HPM_P2
2023/07/17 00:00:52;;;;;;;5.63;3.90;;;;;;;27.77;55.66;101009.34;5062509;28;20072;-58
2023/07/17 00:03:19;;;;;;;4.90;3.80;;;;;;;27.77;55.56;101012.09;5065245;28;20392;-57
2023/07/17 00:05:47;;;;;;;4.60;3.95;;;;;;;27.80;55.66;101011.72;5070350;28;20044;-57
2023/07/17 00:08:14;;;;;;;6.82;4.35;;;;;;;27.79;55.57;101010.00;5069303;28;20044;-57
2023/07/17 00:10:43;;;;;;;6.35;4.20;;;;;;;27.79;55.39;101010.00;5069108;28;20047;-57
2023/07/17 00:13:10;;;;;;;5.45;4.38;;;;;;;27.81;55.55;101013.41;5071934;28;20392;-57
2023/07/17 00:15:38;;;;;;;6.20;3.80;;;;;;;27.82;55.43;101010.50;5067421;28;20041;-57
2023/07/17 00:18:05;;;;;;;7.03;4.28;;;;;;;27.84;55.25;101013.03;5069242;28;20048;-57
2023/07/17 00:20:33;;;;;;;5.55;3.63;;;;;;;27.85;55.28;101017.44;5071847;28;20051;-57
2023/07/17 00:23:00;;;;;;;6.05;3.75;;;;;;;27.85;55.17;101014.72;5069166;28;20048;-57
2023/07/17 00:25:27;;;;;;;6.47;4.15;;;;;;;27.86;55.68;101013.69;5069881;28;20048;-57
2023/07/17 00:27:55;;;;;;;5.78;4.35;;;;;;;27.87;55.19;101019.97;5068649;28;20048;-58
2023/07/17 00:30:23;;;;;;;6.00;4.40;;;;;;;27.87;55.52;101015.38;5069211;28;20060;-58
2023/07/17 00:32:50;;;;;;;5.88;4.25;;;;;;;27.89;55.49;101020.66;5071484;28;20063;-58
2023/07/17 00:35:17;;;;;;;7.60;4.40;;;;;;;27.90;55.25;101022.34;5067030;28;20044;-58
2023/07/17 00:37:46;;;;;;;6.43;3.88;;;;;;;27.90;55.57;101023.19;5069048;28;20068;-58
2023/07/17 00:40:13;;;;;;;5.80;4.38;;;;;;;27.91;55.37;101019.41;5071198;28;20492;-57
2023/07/17 00:42:41;;;;;;;6.93;4.18;;;;;;;27.92;55.53;101015.69;5060919;28;20061;-58
2023/07/17 00:45:08;;;;;;;7.35;4.28;;;;;;;27.93;55.54;101017.38;5065771;28;20561;-58
2023/07/17 00:47:36;;;;;;;6.35;3.67;;;;;;;27.94;55.46;101016.34;5068568;28;20060;-58
2023/07/17 00:50:04;;;;;;;5.05;3.90;;;;;;;27.95;55.29;101017.19;5070076;28;20052;-58
2023/07/17 00:52:33;;;;;;;7.07;4.30;;;;;;;27.96;55.34;101019.72;5068871;28;20036;-58
2023/07/17 00:55:01;;;;;;;5.82;3.83;;;;;;;27.97;55.58;101023.28;5069823;28;20049;-58
2023/07/17 00:57:30;;;;;;;4.80;3.85;;;;;;;27.99;55.22;101018.50;5069743;28;20059;-58
2023/07/17 01:00:00;;;;;;;5.20;3.63;;;;;;;27.99;55.22;101029.38;5068706;28;20052;-57
2023/07/17 01:02:27;;;;;;;6.10;4.13;;;;;;;27.99;55.53;101023.94;5071369;28;20503;-58
2023/07/17 01:04:55;;;;;;;4.88;3.95;;;;;;;28.00;55.15;101023.78;5065346;28;20053;-58
2023/07/17 01:07:23;;;;;;;5.20;3.72;;;;;;;28.00;55.09;101018.34;5067927;28;20048;-58
2023/07/17 01:09:51;;;;;;;5.57;4.22;;;;;;;28.01;55.53;101028.19;5069766;28;20036;-58
2023/07/17 01:12:19;;;;;;;6.30;4.32;;;;;;;28.01;55.07;101020.03;5068533;28;20052;-57
2023/07/17 01:14:47;;;;;;;5.45;4.50;;;;;;;28.02;55.16;101018.97;5065296;28;20048;-58
2023/07/17 01:17:14;;;;;;;4.80;3.63;;;;;;;28.03;55.15;101028.81;5058676;28;20049;-57
2023/07/17 01:19:41;;;;;;;6.80;3.97;;;;;;;28.04;55.41;101022.38;5068384;28;20396;-58
2023/07/17 01:22:31;;;;;;;5.32;3.83;;;;;;;28.05;55.03;101026.78;5068334;28;20103;-57
2023/07/17 01:24:58;;;;;;;5.57;4.30;;;;;;;28.04;55.26;101022.38;5053586;28;20060;-57
2023/07/17 01:27:26;;;;;;;4.78;4.20;;;;;;;28.06;55.23;101019.47;5059461;28;20067;-57
2023/07/17 01:29:53;;;;;;;5.47;4.03;;;;;;;28.06;54.93;101020.31;5068287;28;20044;-57
2023/07/17 01:32:21;;;;;;;6.03;3.80;;;;;;;28.07;55.17;101010.25;5067717;28;20389;-57
2023/07/17 01:34:48;;;;;;;5.15;3.90;;;;;;;28.08;55.25;101007.38;5058075;28;20071;-58
2023/07/17 01:37:17;;;;;;;6.07;4.22;;;;;;;28.09;55.02;101006.31;5068443;28;20049;-58
2023/07/17 01:39:44;;;;;;;4.63;3.55;;;;;;;28.09;55.34;101010.94;5068323;28;20472;-58
2023/07/17 01:42:12;;;;;;;5.53;3.65;;;;;;;28.11;54.93;101003.41;5053641;28;20103;-58
2023/07/17 01:44:39;;;;;;;6.25;4.55;;;;;;;28.12;55.18;101010.56;5065815;28;20492;-57
2023/07/17 01:47:06;;;;;;;5.15;4.15;;;;;;;28.13;54.94;101011.41;5069934;28;20048;-58
2023/07/17 01:49:34;;;;;;;4.60;3.33;;;;;;;28.13;55.27;101009.53;5070736;28;20040;-58
2023/07/17 01:52:04;;;;;;;5.38;4.05;;;;;;;28.14;55.12;101005.75;5057478;28;20056;-58
2023/07/17 01:54:31;;;;;;;6.97;4.35;;;;;;;28.15;54.87;101012.06;5069794;28;20072;-58
2023/07/17 01:56:58;;;;;;;5.13;4.45;;;;;;;28.15;55.07;101006.59;5072075;28;20051;-58
2023/07/17 01:59:26;;;;;;;6.03;3.90;;;;;;;28.16;54.55;101009.16;5071903;28;20045;-58
2023/07/17 02:01:53;;;;;;;5.20;3.70;;;;;;;28.17;54.99;101015.44;5068910;28;20049;-58
2023/07/17 02:04:20;;;;;;;5.00;4.15;;;;;;;28.16;55.07;101014.59;5071799;28;20048;-58
2023/07/17 02:06:48;;;;;;;6.15;3.80;;;;;;;28.17;55.08;101012.72;5073370;28;20056;-57
2023/07/17 02:09:15;;;;;;;6.50;3.90;;;;;;;28.18;54.77;101011.69;5071698;28;20041;-57
2023/07/17 02:11:43;;;;;;;4.32;3.92;;;;;;;28.18;54.70;101015.25;5071420;28;20060;-58
2023/07/17 02:14:10;;;;;;;5.40;4.65;;;;;;;28.19;54.92;101013.38;5071808;28;20053;-58
2023/07/17 02:16:38;;;;;;;5.57;3.85;;;;;;;28.19;54.84;101016.09;5074175;28;20055;-57
2023/07/17 02:19:06;;;;;;;4.53;3.97;;;;;;;28.19;54.53;101024.25;5071539;28;20041;-57
2023/07/17 02:21:34;;;;;;;4.50;3.78;;;;;;;28.20;54.78;101015.09;5072367;28;20380;-58
2023/07/17 02:24:01;;;;;;;5.95;4.10;;;;;;;28.21;54.53;101025.78;5073795;28;20044;-57
2023/07/17 02:26:29;;;;;;;4.85;3.72;;;;;;;28.21;54.47;101025.78;5071508;28;20047;-57
2023/07/17 02:28:56;;;;;;;5.32;4.50;;;;;;;28.21;54.82;101020.31;5073616;28;20056;-58
2023/07/17 02:31:23;;;;;;;4.75;3.92;;;;;;;28.23;54.79;101025.56;5067740;28;20057;-58
2023/07/17 02:33:51;;;;;;;4.93;4.20;;;;;;;28.24;54.88;101035.47;5070764;28;20064;-57
2023/07/17 02:36:19;;;;;;;4.65;3.60;;;;;;;28.25;54.83;101029.81;5073704;28;20052;-58
2023/07/17 02:38:46;;;;;;;5.15;4.20;;;;;;;28.25;54.95;101037.13;5070813;28;20522;-57
2023/07/17 02:41:14;;;;;;;4.72;3.78;;;;;;;28.25;55.02;101034.41;5071084;28;20053;-57
2023/07/17 02:43:42;;;;;;;4.97;4.15;;;;;;;28.25;54.76;101034.41;5071978;28;20053;-58
2023/07/17 02:46:09;;;;;;;6.22;4.38;;;;;;;28.27;55.06;101035.06;5071311;28;20052;-58
2023/07/17 02:48:37;;;;;;;5.85;4.22;;;;;;;28.27;54.71;101035.06;5071789;28;20048;-58
2023/07/17 02:51:06;;;;;;;5.20;3.92;;;;;;;28.28;54.67;101042.22;5069370;28;20465;-58
2023/07/17 02:53:34;;;;;;;5.53;3.95;;;;;;;28.28;54.74;101039.50;5070849;28;20412;-57
2023/07/17 02:56:02;;;;;;;5.82;4.10;;;;;;;28.29;55.04;101052.06;5073369;28;20409;-58
2023/07/17 02:58:32;;;;;;;4.60;4.07;;;;;;;28.29;54.77;101052.91;5069181;28;20373;-58
2023/07/17 03:00:59;;;;;;;6.47;4.75;;;;;;;28.30;54.73;101048.31;5071698;28;20041;-58
2023/07/17 03:03:27;;;;;;;5.35;4.15;;;;;;;28.30;54.60;101053.75;5069285;28;20488;-58
2023/07/17 03:05:57;;;;;;;6.10;4.72;;;;;;;28.30;54.84;101049.16;5063626;28;20052;-58
2023/07/17 03:08:24;;;;;;;5.75;3.85;;;;;;;28.31;55.14;101047.28;5073338;28;20067;-58
2023/07/17 03:10:52;;;;;;;5.40;3.97;;;;;;;28.31;55.16;101048.13;5067287;28;20108;-58
2023/07/17 03:13:20;;;;;;;5.25;4.15;;;;;;;28.31;54.81;101059.00;5069523;28;20048;-58
2023/07/17 03:15:48;;;;;;;5.45;4.38;;;;;;;28.32;54.93;101052.56;5068929;28;20056;-58
2023/07/17 03:18:16;;;;;;;6.47;4.60;;;;;;;28.33;55.17;101058.84;5062081;28;20064;-58
2023/07/17 03:20:44;;;;;;;5.45;4.47;;;;;;;28.33;55.13;101065.13;5057232;28;20055;-58
2023/07/17 03:23:12;;;;;;;5.93;4.18;;;;;;;28.34;54.86;101063.25;5066740;28;20056;-59
2023/07/17 03:25:42;;;;;;;5.53;3.92;;;;;;;28.32;54.61;101049.81;5061422;28;20362;-58
2023/07/17 03:28:10;;;;;;;5.65;4.05;;;;;;;28.30;54.49;101051.88;5067277;28;20055;-58
2023/07/17 03:30:39;;;;;;;6.53;5.00;;;;;;;28.29;54.32;101061.09;5068298;28;20040;-58
2023/07/17 03:33:06;;;;;;;6.13;4.47;;;;;;;28.29;54.52;101061.09;5060421;28;20057;-58
2023/07/17 03:35:34;;;;;;;6.20;5.28;;;;;;;28.26;54.58;101061.44;5073125;28;20048;-58
2023/07/17 03:38:03;;;;;;;6.28;5.10;;;;;;;28.26;54.44;101061.44;5070073;28;20044;-59
2023/07/17 03:40:30;;;;;;;7.78;4.82;;;;;;;28.25;54.08;101067.09;5069891;28;20048;-59
2023/07/17 03:42:58;;;;;;;8.32;5.18;;;;;;;28.25;53.92;101072.53;5059179;28;20048;-58
2023/07/17 03:45:25;;;;;;;6.20;4.63;;;;;;;28.23;54.03;101069.13;5071327;28;20212;-58
2023/07/17 03:47:53;;;;;;;6.45;4.57;;;;;;;28.23;53.98;101071.84;5067840;28;20049;-59
2023/07/17 03:50:21;;;;;;;5.97;5.00;;;;;;;28.22;53.81;101079.19;5071349;28;20051;-59
2023/07/17 03:52:48;;;;;;;6.90;5.22;;;;;;;28.23;53.53;101074.59;5060382;28;20400;-59
2023/07/17 03:55:16;;;;;;;6.63;4.90;;;;;;;28.22;53.97;101081.91;5071048;28;20056;-58
2023/07/17 03:57:43;;;;;;;6.43;4.60;;;;;;;28.23;53.48;101077.31;5066264;28;20048;-58
2023/07/17 04:00:15;;;;;;;6.18;4.88;;;;;;;28.23;53.69;101077.31;5070872;28;20401;-59
2023/07/17 04:02:44;;;;;;;5.22;4.45;;;;;;;28.23;53.34;101071.84;5061002;28;20587;-59
2023/07/17 04:05:23;;;;;;;7.57;4.55;;;;;;;28.23;53.23;101077.31;5070822;28;20052;-59
2023/07/17 04:07:51;;;;;;;7.65;5.10;;;;;;;28.22;52.80;101084.63;5066122;28;20059;-59
2023/07/17 04:10:19;;;;;;;8.23;5.40;;;;;;;28.23;52.37;101085.47;5067841;28;20048;-59
2023/07/17 04:12:46;;;;;;;9.18;5.03;;;;;;;28.22;52.08;101081.06;5060844;28;20503;-58
2023/07/17 04:15:14;;;;;;;6.53;4.97;;;;;;;28.22;52.08;101092.78;5060943;28;20063;-58
2023/07/17 04:17:41;;;;;;;7.68;4.75;;;;;;;28.22;52.18;101100.13;5066294;28;20519;-58
2023/07/17 04:20:10;;;;;;;7.53;4.90;;;;;;;28.21;52.20;101102.00;5059114;28;20041;-58
2023/07/17 04:22:38;;;;;;;7.10;4.82;;;;;;;28.21;52.17;101102.00;5067624;28;20507;-58
2023/07/17 04:25:06;;;;;;;6.03;4.55;;;;;;;28.22;52.25;101111.00;5061105;28;20049;-58
2023/07/17 04:27:34;;;;;;;8.00;4.35;;;;;;;28.20;52.15;101111.22;5066307;28;20496;-58
2023/07/17 04:30:02;;;;;;;7.25;5.10;;;;;;;28.22;51.56;101105.56;5065066;28;20048;-59
2023/07/17 04:32:32;;;;;;;7.90;4.60;;;;;;;28.21;51.46;101112.88;5058381;28;20382;-59
2023/07/17 04:34:59;;;;;;;6.68;4.63;;;;;;;28.20;51.56;101119.38;5066833;28;20048;-58
2023/07/17 04:37:27;;;;;;;6.88;4.20;;;;;;;28.21;51.53;101109.31;5058346;28;20060;-58
2023/07/17 04:39:55;;;;;;;6.03;4.45;;;;;;;28.20;51.32;101111.22;5057175;28;20048;-59
2023/07/17 04:42:23;;;;;;;6.00;4.90;;;;;;;28.20;51.50;101121.25;5067355;28;20064;-58
2023/07/17 04:44:52;;;;;;;7.95;4.70;;;;;;;28.19;51.34;101123.09;5060619;28;20045;-59
2023/07/17 04:47:20;;;;;;;7.35;4.32;;;;;;;28.20;51.67;101118.53;5062244;28;20057;-58
2023/07/17 04:49:47;;;;;;;8.02;4.53;;;;;;;28.19;51.47;101122.25;5056324;28;20068;-58
2023/07/17 04:52:17;;;;;;;8.45;5.07;;;;;;;28.20;51.42;101129.41;5064642;28;20397;-59
2023/07/17 04:54:44;;;;;;;6.38;4.18;;;;;;;28.19;51.27;101125.81;5065217;28;20052;-59
2023/07/17 04:57:11;;;;;;;5.95;4.63;;;;;;;28.20;51.74;101132.16;5061923;28;20053;-58
2023/07/17 04:59:39;;;;;;;5.72;4.47;;;;;;;28.20;51.28;101134.88;5053770;28;20060;-58
2023/07/17 05:02:06;;;;;;;7.25;4.72;;;;;;;28.20;51.34;101132.16;5062101;28;20051;-58
2023/07/17 05:04:34;;;;;;;6.30;4.57;;;;;;;28.20;51.26;101130.25;5069951;28;20515;-58
2023/07/17 05:07:02;;;;;;;8.55;5.20;;;;;;;28.21;51.67;101126.50;5065928;28;20052;-58
2023/07/17 05:09:29;;;;;;;6.07;4.35;;;;;;;28.23;51.59;101129.03;5067828;28;20415;-58
2023/07/17 05:11:57;;;;;;;6.43;4.13;;;;;;;28.23;51.67;101129.88;5061975;28;20060;-58
2023/07/17 05:14:24;;;;;;;6.15;4.47;;;;;;;28.24;51.28;101126.16;5064584;28;20056;-58
2023/07/17 05:16:52;;;;;;;6.07;4.57;;;;;;;28.26;51.78;101125.94;5056783;28;20509;-58
2023/07/17 05:19:22;;;;;;;6.55;4.18;;;;;;;28.26;51.70;101128.66;5071276;28;20060;-58
2023/07/17 05:21:49;;;;;;;5.47;4.28;;;;;;;28.27;51.66;101133.06;5058998;28;20041;-57
2023/07/17 05:24:17;;;;;;;9.60;4.78;;;;;;;28.28;51.30;101138.34;5060996;28;20503;-58
2023/07/17 05:26:44;;;;;;;7.82;4.68;;;;;;;28.27;51.62;101136.63;5057717;28;20520;-58
2023/07/17 05:29:11;;;;;;;9.65;5.10;;;;;;;28.29;51.38;101136.47;5074993;28;20052;-58
2023/07/17 05:31:40;;;;;;;6.22;4.55;;;;;;;28.30;51.35;101140.88;5065410;28;20049;-58
2023/07/17 05:34:07;;;;;;;5.70;3.95;;;;;;;28.30;51.62;101141.72;5069203;28;20048;-58
2023/07/17 05:36:34;;;;;;;7.72;4.43;;;;;;;28.30;51.78;101143.59;5068770;28;20056;-58
2023/07/17 05:39:03;;;;;;;6.63;4.18;;;;;;;28.31;51.60;101148.00;5069319;28;20500;-58
2023/07/17 05:41:32;;;;;;;6.38;4.43;;;;;;;28.31;51.70;101148.00;5068674;28;20503;-58
2023/07/17 05:44:00;;;;;;;6.20;4.32;;;;;;;28.32;51.68;101138.84;5062252;28;20048;-58
2023/07/17 05:46:28;;;;;;;6.63;4.03;;;;;;;28.34;51.70;101144.94;5070585;28;20059;-58
2023/07/17 05:48:56;;;;;;;6.93;4.03;;;;;;;28.33;51.81;101141.38;5072198;28;20507;-58
2023/07/17 05:51:23;;;;;;;6.95;4.43;;;;;;;28.35;51.60;101143.91;5073274;28;20044;-58
2023/07/17 05:53:52;;;;;;;8.23;4.65;;;;;;;28.35;51.66;101143.91;5063106;28;20057;-58
2023/07/17 05:56:20;;;;;;;7.93;4.28;;;;;;;28.37;51.36;101155.50;5071761;28;20373;-58
2023/07/17 05:58:48;;;;;;;7.75;4.32;;;;;;;28.38;51.75;101146.28;5073180;28;20052;-58
2023/07/17 06:01:15;;;;;;;6.07;4.60;;;;;;;28.39;51.93;101147.13;5064116;28;20500;-58
2023/07/17 06:03:44;;;;;;;7.95;4.90;;;;;;;28.39;51.62;101142.53;5069098;28;20059;-58
2023/07/17 06:06:12;;;;;;;7.38;4.78;;;;;;;28.41;51.90;101145.09;5069333;28;20049;-58
2023/07/17 06:08:39;;;;;;;8.23;4.85;;;;;;;28.40;52.10;101141.53;5069165;28;20044;-59
2023/07/17 06:11:07;;;;;;;6.47;3.97;;;;;;;28.41;52.18;101148.66;5067639;28;20051;-59
2023/07/17 06:13:34;;;;;;;8.35;4.85;;;;;;;28.42;52.25;101144.88;5069515;28;20044;-59
2023/07/17 06:16:02;;;;;;;6.00;3.72;;;;;;;28.43;52.17;101149.28;5068899;28;20523;-59
2023/07/17 06:18:30;;;;;;;6.88;4.20;;;;;;;28.44;52.19;101151.00;5071730;28;20044;-58
2023/07/17 06:20:57;;;;;;;7.80;4.70;;;;;;;28.46;52.29;101150.81;5071240;28;20415;-59
2023/07/17 06:23:24;;;;;;;8.73;4.68;;;;;;;28.46;52.75;101158.97;5069401;28;20067;-59
2023/07/17 06:25:52;;;;;;;8.43;4.30;;;;;;;28.46;52.68;101157.09;5068933;28;20057;-59
2023/07/17 06:28:19;;;;;;;6.80;4.35;;;;;;;28.48;52.25;101165.09;5071305;28;20052;-58
2023/07/17 06:30:47;;;;;;;7.53;4.38;;;;;;;28.48;52.36;101163.22;5071014;28;20045;-59
2023/07/17 06:33:14;;;;;;;6.75;4.28;;;;;;;28.49;52.25;101167.63;5069134;28;20075;-59
2023/07/17 06:35:44;;;;;;;9.25;4.20;;;;;;;28.49;51.55;101169.53;5068213;28;20045;-59
2023/07/17 06:38:11;;;;;;;7.40;4.50;;;;;;;28.49;51.74;101169.53;5070882;28;20056;-58
2023/07/17 06:40:39;;;;;;;6.13;3.65;;;;;;;28.50;51.81;101169.31;5070948;28;20051;-58
2023/07/17 06:43:06;;;;;;;8.40;4.40;;;;;;;28.52;51.98;101167.28;5071731;28;20048;-56
2023/07/17 06:45:34;;;;;;;7.18;4.97;;;;;;;28.52;51.80;101164.56;5068527;28;20049;-56
2023/07/17 06:48:02;;;;;;;6.22;4.90;;;;;;;28.53;52.13;101171.69;5070698;28;20041;-61
2023/07/17 06:50:30;;;;;;;8.68;4.63;;;;;;;28.55;52.50;101163.31;5071086;28;20044;-56
2023/07/17 06:52:57;;;;;;;9.15;4.85;;;;;;;28.55;52.47;101175.06;5061639;28;20044;-60
2023/07/17 06:55:24;;;;;;;5.85;4.85;;;;;;;28.56;52.22;101165.88;5068481;28;20048;-61
2023/07/17 06:57:52;;;;;;;6.30;3.72;;;;;;;28.58;51.71;101176.56;5070531;28;20052;-61
2023/07/17 07:00:19;;;;;;;6.70;4.88;;;;;;;28.59;51.18;101172.81;5070528;28;20051;-61
2023/07/17 07:02:47;;;;;;;7.50;5.13;;;;;;;28.61;50.75;101175.38;5061624;28;20399;-61
2023/07/17 07:05:14;;;;;;;8.50;4.72;;;;;;;28.60;50.61;101177.22;5056925;28;20504;-61
2023/07/17 07:07:41;;;;;;;7.03;4.20;;;;;;;28.63;50.49;101176.00;5062596;28;20053;-64
2023/07/17 07:10:09;;;;;;;5.65;4.40;;;;;;;28.62;50.11;101177.91;5066385;28;20045;-63
2023/07/17 07:12:37;;;;;;;6.90;4.00;;;;;;;28.63;50.21;101182.31;5068536;28;20045;-62
2023/07/17 07:15:06;;;;;;;7.75;4.57;;;;;;;28.64;50.59;101181.25;5067637;28;20060;-62
2023/07/17 07:17:34;;;;;;;7.15;4.15;;;;;;;28.65;50.52;101190.31;5067830;28;20412;-56
2023/07/17 07:20:02;;;;;;;6.22;4.32;;;;;;;28.66;50.46;101192.84;5072520;28;20048;-56
2023/07/17 07:22:30;;;;;;;7.00;4.30;;;;;;;28.66;50.49;101192.84;5071380;28;20403;-56
2023/07/17 07:24:58;;;;;;;7.07;4.55;;;;;;;28.67;50.11;101194.53;5056031;28;20052;-56
2023/07/17 07:27:26;;;;;;;6.35;4.07;;;;;;;28.67;50.19;101197.25;5065032;28;20045;-56
2023/07/17 07:29:54;;;;;;;7.07;4.38;;;;;;;28.68;50.03;101190.75;5072145;28;20051;-56
2023/07/17 07:32:21;;;;;;;6.88;4.20;;;;;;;28.70;49.85;101187.88;5068817;28;20059;-57
2023/07/17 07:34:49;;;;;;;8.35;4.30;;;;;;;28.71;49.71;101192.28;5068005;28;20049;-57
2023/07/17 07:37:16;;;;;;;8.07;4.63;;;;;;;28.72;49.63;101191.25;5067494;28;20053;-57
2023/07/17 07:39:44;;;;;;;9.13;4.35;;;;;;;28.73;49.75;101187.50;5057835;28;20045;-57
2023/07/17 07:42:11;;;;;;;6.70;4.30;;;;;;;28.74;49.30;101190.03;5067138;28;20052;-57
2023/07/17 07:44:38;;;;;;;6.65;4.15;;;;;;;28.74;49.42;101184.59;5069773;28;20055;-57
2023/07/17 07:47:06;;;;;;;6.63;4.32;;;;;;;28.75;49.43;101183.53;5067388;28;20048;-57
2023/07/17 07:49:33;;;;;;;6.07;3.60;;;;;;;28.77;49.49;101180.66;5072027;28;20041;-57
2023/07/17 07:52:01;;;;;;;7.00;4.30;;;;;;;28.77;49.39;101189.66;5064739;28;20040;-57
2023/07/17 07:54:28;;;;;;;7.03;3.83;;;;;;;28.78;49.78;101193.25;5070163;28;20063;-57
2023/07/17 07:56:55;;;;;;;7.97;4.20;;;;;;;28.79;49.57;101190.31;5068964;28;20522;-57
2023/07/17 07:59:23;;;;;;;8.40;4.15;;;;;;;28.81;49.20;101187.41;5071550;28;20602;-57
2023/07/17 08:01:50;;;;;;;8.05;4.75;;;;;;;28.82;48.96;101189.09;5063018;28;20045;-57
2023/07/17 08:04:18;;;;;;;9.07;4.28;;;;;;;28.83;49.07;101190.78;5057621;28;20358;-57
2023/07/17 08:06:45;;;;;;;7.05;4.30;;;;;;;28.83;49.46;101188.06;5066671;28;20064;-57
2023/07/17 08:09:12;;;;;;;6.93;4.30;;;;;;;28.82;49.48;101195.41;5067674;28;20064;-57
2023/07/17 08:11:40;;;;;;;7.45;4.78;;;;;;;28.83;49.61;101194.38;5067592;28;20053;-57
2023/07/17 08:14:07;;;;;;;6.10;4.63;;;;;;;28.85;49.59;101187.91;5063294;28;20056;-57
2023/07/17 08:16:35;;;;;;;6.10;4.13;;;;;;;28.85;49.41;101194.19;5062848;28;20049;-57
2023/07/17 08:19:02;;;;;;;5.95;3.70;;;;;;;28.87;49.50;101186.66;5068604;28;20040;-57
2023/07/17 08:21:30;;;;;;;5.53;4.18;;;;;;;28.87;49.35;101196.72;5064206;28;20048;-57
2023/07/17 08:23:58;;;;;;;7.18;4.25;;;;;;;28.88;49.53;101195.69;5063203;28;20067;-57
2023/07/17 08:26:25;;;;;;;7.05;4.07;;;;;;;28.88;49.52;101201.97;5061230;28;20055;-64
2023/07/17 08:28:53;;;;;;;5.22;4.18;;;;;;;28.88;49.46;101204.69;5066057;28;20420;-64
2023/07/17 08:31:21;;;;;;;7.38;4.55;;;;;;;28.89;49.28;101202.84;5053288;28;20048;-64
2023/07/17 08:33:49;;;;;;;7.10;4.15;;;;;;;28.88;49.44;101204.69;5069381;28;20052;-64
2023/07/17 08:36:16;;;;;;;6.25;4.15;;;;;;;28.88;49.35;101201.97;5068822;28;20036;-56
2023/07/17 08:38:44;;;;;;;6.63;4.50;;;;;;;28.89;49.47;101213.75;5066456;28;20049;-55
2023/07/17 08:41:11;;;;;;;5.70;4.10;;;;;;;28.89;49.54;101211.88;5070028;28;20067;-55
2023/07/17 08:43:39;;;;;;;7.03;4.22;;;;;;;28.87;49.57;101197.56;5069426;28;20044;-55
2023/07/17 08:46:07;;;;;;;6.28;4.15;;;;;;;28.89;50.11;101202.84;5068347;28;20522;-64
2023/07/17 08:48:34;;;;;;;8.07;4.70;;;;;;;28.90;50.07;101204.53;5065607;28;20048;-55
2023/07/17 08:51:02;;;;;;;7.20;3.90;;;;;;;28.90;50.13;101204.53;5069960;28;20056;-55
2023/07/17 08:53:33;;;;;;;5.95;4.32;;;;;;;28.89;50.09;101195.50;5067988;28;20060;-55
2023/07/17 08:56:01;;;;;;;7.35;3.83;;;;;;;28.91;50.34;101195.31;5069923;28;20056;-56
2023/07/17 08:58:29;;;;;;;7.22;4.43;;;;;;;28.91;50.52;101207.06;5065589;28;20052;-63
2023/07/17 09:00:57;;;;;;;7.15;4.20;;;;;;;28.92;50.19;101197.84;5059630;28;20408;-64
2023/07/17 09:03:25;;;;;;;7.20;4.35;;;;;;;28.93;50.71;101198.72;5055090;28;20056;-63
2023/07/17 09:05:53;;;;;;;6.68;4.28;;;;;;;28.94;50.27;101200.41;5062015;28;20048;-64
2023/07/17 09:08:21;;;;;;;7.40;4.25;;;;;;;28.95;50.30;101205.66;5064558;28;20502;-55
2023/07/17 09:11:02;;;;;;;6.18;4.13;;;;;;;28.95;50.53;101202.94;5068899;28;20052;-63
2023/07/17 09:13:40;;;;;;;6.90;4.25;;;;;;;28.95;50.31;101188.47;5059592;28;20510;-64
2023/07/17 09:16:19;;;;;;;6.57;4.22;;;;;;;28.96;50.56;101198.31;5065336;28;20427;-58
2023/07/17 09:18:47;;;;;;;4.93;3.70;;;;;;;28.96;50.74;101193.72;5054765;28;20049;-55
2023/07/17 09:21:17;;;;;;;6.75;4.07;;;;;;;28.97;50.33;101189.16;5067580;28;20067;-55
2023/07/17 09:23:50;;;;;;;8.88;4.25;;;;;;;28.98;50.48;101196.31;5070430;28;20041;-56
2023/07/17 09:26:20;;;;;;;5.55;3.88;;;;;;;28.97;50.22;101190.00;5064362;28;20056;-56
2023/07/17 09:28:56;;;;;;;6.53;4.47;;;;;;;28.99;50.23;101196.09;5067783;28;20044;-56
2023/07/17 09:31:25;;;;;;;8.68;4.70;;;;;;;28.98;50.35;101191.69;5070667;28;20056;-55
2023/07/17 09:33:54;;;;;;;7.35;4.38;;;;;;;29.01;50.11;101187.75;5065803;28;20052;-55
2023/07/17 09:36:22;;;;;;;5.68;3.60;;;;;;;29.01;50.22;101191.31;5062127;28;20049;-63
2023/07/17 09:38:51;;;;;;;7.00;4.30;;;;;;;29.00;50.14;101183.31;5060051;28;20048;-64
2023/07/17 09:41:23;;;;;;;6.43;4.30;;;;;;;29.01;50.51;101193.22;5067680;28;20239;-63
2023/07/17 09:44:02;;;;;;;6.97;4.93;;;;;;;29.01;50.27;101191.31;5065616;28;20097;-63
2023/07/17 09:46:36;;;;;;;6.60;4.53;;;;;;;29.02;50.32;101182.09;5065647;28;20041;-64
2023/07/17 09:49:04;;;;;;;6.18;4.72;;;;;;;29.02;50.21;101187.56;5070202;28;20047;-64
2023/07/17 09:51:32;;;;;;;5.93;4.22;;;;;;;29.02;50.25;101175.81;5066913;28;20070;-64
2023/07/17 09:54:02;;;;;;;7.75;4.85;;;;;;;29.02;49.98;101182.09;5066232;28;20397;-63
2023/07/17 09:56:31;;;;;;;8.32;5.07;;;;;;;29.03;49.84;101181.06;5066978;28;20067;-63
2023/07/17 09:59:05;;;;;;;7.15;3.88;;;;;;;29.02;50.25;101175.81;5070283;28;20041;-64
2023/07/17 10:01:33;;;;;;;7.05;4.40;;;;;;;29.02;49.76;101179.38;5063703;28;20583;-64
2023/07/17 10:04:04;;;;;;;7.97;4.55;;;;;;;29.04;49.86;101180.03;5067462;28;20050;-64
2023/07/17 10:06:33;;;;;;;7.70;4.38;;;;;;;29.05;50.09;101183.63;5058621;28;20044;-64
2023/07/17 10:09:01;;;;;;;6.75;4.10;;;;;;;29.05;50.06;101170.84;5072887;28;20071;-64
2023/07/17 10:11:29;;;;;;;4.85;4.30;;;;;;;29.06;49.89;101171.69;5067257;28;20055;-64
2023/07/17 10:13:56;;;;;;;6.10;4.07;;;;;;;29.06;49.78;101168.94;5065398;28;20044;-64
2023/07/17 10:16:24;;;;;;;8.25;4.13;;;;;;;29.06;49.77;101168.94;5071369;28;20063;-56
2023/07/17 10:18:55;;;;;;;6.05;4.32;;;;;;;29.06;49.87;101171.69;5067575;28;20048;-56
2023/07/17 10:21:23;;;;;;;8.38;3.97;;;;;;;29.06;49.53;101161.63;5069016;28;20546;-56
2023/07/17 10:23:50;;;;;;;6.05;4.70;;;;;;;29.07;49.57;101155.13;5073095;28;20048;-56
2023/07/17 10:26:21;;;;;;;7.20;4.47;;;;;;;29.07;49.61;101157.84;5071265;28;20492;-56
2023/07/17 10:28:52;;;;;;;7.70;4.50;;;;;;;29.08;50.02;101161.41;5073424;28;20052;-56
2023/07/17 10:31:25;;;;;;;7.38;4.90;;;;;;;29.07;49.53;101165.19;5065250;28;20511;-56
2023/07/17 10:34:02;;;;;;;6.07;4.07;;;;;;;29.08;49.77;101159.53;5060110;28;20497;-56
2023/07/17 10:36:41;;;;;;;6.60;4.32;;;;;;;29.09;49.59;101168.56;5068435;28;20052;-60
2023/07/17 10:39:17;;;;;;;5.82;4.38;;;;;;;29.09;49.99;101163.13;5069868;28;20052;-60
2023/07/17 10:41:49;;;;;;;8.77;4.68;;;;;;;29.11;50.13;101154.75;5065210;28;20047;-61
2023/07/17 10:44:19;;;;;;;6.18;4.47;;;;;;;29.11;50.11;101152.03;5064903;28;20384;-61
2023/07/17 10:46:47;;;;;;;7.18;4.55;;;;;;;29.11;50.21;101152.03;5068710;28;20045;-57
2023/07/17 10:49:17;;;;;;;6.82;4.47;;;;;;;29.10;50.19;101144.88;5065872;28;20044;-57
2023/07/17 10:51:46;;;;;;;7.15;4.85;;;;;;;29.11;50.24;101152.03;5061259;28;20048;-57
2023/07/17 10:54:15;;;;;;;5.28;4.30;;;;;;;29.11;50.39;101152.88;5073300;28;20039;-57
2023/07/17 10:56:48;;;;;;;5.88;4.47;;;;;;;29.12;50.43;101153.69;5067548;28;20059;-57
2023/07/17 10:59:19;;;;;;;5.28;4.78;;;;;;;29.12;50.24;101151.81;5062067;28;20078;-57
2023/07/17 11:01:47;;;;;;;6.10;4.03;;;;;;;29.11;50.61;101152.88;5070499;28;20047;-57
2023/07/17 11:04:16;;;;;;;7.78;4.30;;;;;;;29.12;50.53;101150.97;5070047;28;20036;-57
2023/07/17 11:06:44;;;;;;;6.90;4.53;;;;;;;29.12;50.16;101145.53;5064790;28;20051;-57
2023/07/17 11:09:11;;;;;;;5.80;4.32;;;;;;;29.11;50.38;101144.69;5066287;28;20463;-57
2023/07/17 11:11:39;;;;;;;8.88;5.50;;;;;;;29.12;50.26;101148.25;5070153;28;20052;-57
2023/07/17 11:14:07;;;;;;;5.72;4.30;;;;;;;29.12;50.27;101146.38;5069361;28;20044;-57
2023/07/17 11:16:34;;;;;;;6.70;3.95;;;;;;;29.12;50.37;101142.78;5064460;28;20229;-57
2023/07/17 11:19:04;;;;;;;6.05;4.45;;;;;;;29.11;50.63;101138.38;5057614;28;20496;-57
2023/07/17 11:21:32;;;;;;;6.72;4.32;;;;;;;29.12;50.71;101140.06;5068397;28;20052;-57
2023/07/17 11:24:01;;;;;;;6.93;4.20;;;;;;;29.12;50.59;101135.47;5059027;28;20409;-57
2023/07/17 11:26:34;;;;;;;7.60;4.35;;;;;;;29.13;50.55;101133.56;5066763;28;20048;-57
2023/07/17 11:29:02;;;;;;;7.75;4.30;;;;;;;29.13;50.58;101134.44;5058794;28;20357;-57